createdAt,value
2018-05-01T00:01:47.458Z,75.90
2018-05-01T00:04:13.449Z,76.70
2018-05-01T00:06:39.407Z,76.20
2018-05-01T00:09:06.123Z,77.40
2018-05-01T00:11:32.071Z,77.40
2018-05-01T00:13:58.074Z,77.10
2018-05-01T00:16:24.052Z,77.50
2018-05-01T00:18:51.495Z,76.70
2018-05-01T00:21:17.483Z,76.70
2018-05-01T00:23:44.202Z,77.20
2018-05-01T00:26:10.167Z,77.20
2018-05-01T00:28:36.878Z,76.50
2018-05-01T00:31:02.835Z,76.50
2018-05-01T00:33:28.815Z,76.90
2018-05-01T00:35:54.814Z,78.00
2018-05-01T00:38:20.779Z,78.60
2018-05-01T00:40:46.806Z,78.20
2018-05-01T00:43:13.543Z,78.20
2018-05-01T00:45:39.487Z,78.20
2018-05-01T00:48:06.205Z,82.30
2018-05-01T00:50:32.171Z,82.30
2018-05-01T00:52:58.157Z,84.20
2018-05-01T00:55:24.156Z,86.80
2018-05-01T00:57:50.847Z,86.20
2018-05-01T01:00:16.823Z,86.20
2018-05-01T01:02:42.779Z,85.80
2018-05-01T01:05:09.495Z,89.80
2018-05-01T01:07:35.549Z,89.80
2018-05-01T01:10:01.728Z,87.90
2018-05-01T01:12:27.740Z,88.40
2018-05-01T01:14:54.453Z,90.30
2018-05-01T01:17:20.455Z,90.10
2018-05-01T01:19:46.430Z,91.00
2018-05-01T01:22:12.440Z,91.70
2018-05-01T01:24:38.418Z,90.70
2018-05-01T01:27:04.432Z,91.50
2018-05-01T01:29:30.387Z,91.10
2018-05-01T01:34:50.813Z,94.30
2018-05-01T01:37:16.700Z,94.40
2018-05-01T01:39:43.379Z,96.40
2018-05-01T01:42:09.248Z,96.40
2018-05-01T01:44:35.171Z,93.70
2018-05-01T01:47:01.112Z,92.40
2018-05-01T01:49:26.982Z,92.50
2018-05-01T01:51:53.696Z,95.00
2018-05-01T01:54:19.589Z,95.00
2018-05-01T01:56:45.448Z,96.20
2018-05-01T01:59:11.344Z,95.50
2018-05-01T02:01:37.216Z,95.80
2018-05-01T02:04:03.079Z,96.40
2018-05-01T02:06:29.920Z,94.10
2018-05-01T02:08:55.793Z,93.60
2018-05-01T02:11:22.412Z,94.00
2018-05-01T02:13:48.339Z,94.00
2018-05-01T02:16:14.267Z,95.60
2018-05-01T02:18:40.132Z,98.20
2018-05-01T02:21:06.032Z,98.40
2018-05-01T02:23:31.908Z,96.00
2018-05-01T02:25:58.589Z,98.70
2018-05-01T02:28:24.512Z,98.70
2018-05-01T02:30:50.383Z,99.90
2018-05-01T02:33:16.281Z,99.10
2018-05-01T02:35:42.169Z,99.90
2018-05-01T02:38:08.070Z,99.90
2018-05-01T02:40:34.016Z,99.90
2018-05-01T02:42:59.915Z,99.90
2018-05-01T02:45:25.797Z,99.90
2018-05-01T02:47:51.681Z,99.90
2018-05-01T02:50:18.353Z,99.90
2018-05-01T02:52:44.312Z,99.90
2018-05-01T02:55:10.176Z,99.90
2018-05-01T02:57:36.054Z,99.90
2018-05-01T03:00:01.990Z,99.90
2018-05-01T03:02:27.917Z,99.90
2018-05-01T03:04:53.821Z,99.90
2018-05-01T03:07:24.245Z,99.90
2018-05-01T03:09:50.202Z,99.90
2018-05-01T03:12:16.048Z,99.90
2018-05-01T03:14:41.976Z,99.90
2018-05-01T03:17:08.592Z,99.90
2018-05-01T03:19:34.463Z,99.90
2018-05-01T03:22:01.120Z,99.90
2018-05-01T03:24:27.726Z,99.90
2018-05-01T03:26:53.687Z,99.90
2018-05-01T03:29:19.527Z,99.90
2018-05-01T03:31:46.128Z,99.90
2018-05-01T03:34:12.057Z,99.90
2018-05-01T03:36:37.923Z,99.90
2018-05-01T03:39:03.877Z,99.90
2018-05-01T03:41:29.788Z,99.90
2018-05-01T03:43:55.661Z,99.90
2018-05-01T03:46:22.283Z,99.90
2018-05-01T03:48:48.932Z,99.90
2018-05-01T03:51:14.800Z,99.90
2018-05-01T03:53:41.469Z,99.90
2018-05-01T03:56:07.454Z,99.90
2018-05-01T03:58:33.992Z,99.90
2018-05-01T04:00:59.896Z,99.90
2018-05-01T04:03:25.756Z,99.90
2018-05-01T04:05:51.679Z,99.90
2018-05-01T04:08:17.548Z,99.90
2018-05-01T04:10:43.457Z,99.90
2018-05-01T04:13:09.357Z,99.90
2018-05-01T04:15:35.279Z,99.90
2018-05-01T04:18:01.917Z,99.90
2018-05-01T04:20:27.807Z,99.90
2018-05-01T04:22:53.679Z,99.90
2018-05-01T04:25:19.591Z,99.90
2018-05-01T04:27:45.463Z,99.90
2018-05-01T04:30:12.131Z,99.90
2018-05-01T04:32:38.008Z,99.90
2018-05-01T04:35:03.907Z,99.90
2018-05-01T04:37:29.820Z,99.90
2018-05-01T04:39:56.985Z,99.90
2018-05-01T04:42:22.899Z,99.90
2018-05-01T04:44:48.787Z,99.90
2018-05-01T04:47:14.703Z,99.90
2018-05-01T04:49:40.710Z,99.90
2018-05-01T04:52:06.568Z,99.90
2018-05-01T04:54:32.467Z,99.90
2018-05-01T04:56:58.334Z,99.90
2018-05-01T04:59:24.288Z,99.90
2018-05-01T05:01:50.159Z,99.90
2018-05-01T05:04:16.072Z,99.90
2018-05-01T05:06:42.585Z,99.90
2018-05-01T05:09:08.484Z,99.90
2018-05-01T05:11:34.403Z,99.90
2018-05-01T05:14:00.264Z,99.90
2018-05-01T05:16:26.174Z,99.90
2018-05-01T05:18:52.088Z,99.90
2018-05-01T05:21:18.040Z,99.90
2018-05-01T05:23:43.908Z,99.90
2018-05-01T05:26:10.568Z,99.90
2018-05-01T05:28:37.177Z,99.90
2018-05-01T05:31:03.150Z,99.90
2018-05-01T05:33:29.051Z,99.90
2018-05-01T05:35:55.011Z,99.90
2018-05-01T05:38:20.876Z,99.90
2018-05-01T05:40:46.788Z,99.90
2018-05-01T05:43:13.427Z,99.90
2018-05-01T05:45:39.309Z,99.90
2018-05-01T05:48:05.207Z,99.90
2018-05-01T05:50:31.823Z,99.90
2018-05-01T05:52:57.720Z,99.90
2018-05-01T05:55:23.637Z,99.90
2018-05-01T05:57:49.538Z,99.90
2018-05-01T06:00:15.441Z,99.90
2018-05-01T06:02:41.332Z,99.90
2018-05-01T06:05:07.974Z,99.90
2018-05-01T06:07:33.877Z,99.90
2018-05-01T06:09:59.812Z,99.90
2018-05-01T06:12:25.696Z,99.90
2018-05-01T06:14:51.594Z,99.90
2018-05-01T06:17:17.455Z,99.90
2018-05-01T06:19:44.109Z,99.90
2018-05-01T06:22:10.753Z,99.90
2018-05-01T06:24:36.616Z,99.90
2018-05-01T06:27:02.512Z,99.90
2018-05-01T06:29:28.376Z,98.80
2018-05-01T06:31:54.313Z,99.90
2018-05-01T06:34:20.223Z,99.10
2018-05-01T06:36:47.547Z,99.00
2018-05-01T06:39:13.455Z,99.00
2018-05-01T06:41:39.325Z,98.40
2018-05-01T06:44:05.240Z,96.90
2018-05-01T06:46:31.879Z,94.50
2018-05-01T06:48:59.230Z,92.90
2018-05-01T06:51:25.105Z,92.90
2018-05-01T06:53:51.032Z,92.10
2018-05-01T06:56:17.668Z,92.10
2018-05-01T06:58:44.317Z,91.50
2018-05-01T07:01:10.204Z,91.50
2018-05-01T07:03:36.132Z,90.70
2018-05-01T07:06:02.005Z,90.70
2018-05-01T07:08:27.947Z,87.50
2018-05-01T07:10:53.824Z,90.80
2018-05-01T07:13:19.734Z,91.00
2018-05-01T07:15:46.436Z,88.10
2018-05-01T07:18:13.055Z,84.50
2018-05-01T07:20:39.664Z,84.70
2018-05-01T07:23:05.557Z,84.60
2018-05-01T07:25:31.493Z,81.70
2018-05-01T07:27:57.448Z,81.40
2018-05-01T07:30:23.459Z,82.80
2018-05-01T07:32:49.376Z,82.30
2018-05-01T07:35:16.077Z,81.60
2018-05-01T07:37:41.990Z,81.60
2018-05-01T07:40:07.887Z,80.30
2018-05-01T07:42:33.764Z,78.30
2018-05-01T07:44:59.679Z,79.40
2018-05-01T07:47:26.346Z,76.80
2018-05-01T07:49:52.225Z,76.90
2018-05-01T07:52:19.094Z,76.00
2018-05-01T07:54:44.980Z,78.80
2018-05-01T07:57:10.852Z,77.90
2018-05-01T07:59:36.849Z,76.10
2018-05-01T08:02:02.713Z,77.30
2018-05-01T08:04:28.644Z,78.40
2018-05-01T08:06:54.755Z,76.80
2018-05-01T08:09:20.712Z,76.60
2018-05-01T08:11:46.690Z,77.10
2018-05-01T08:14:13.336Z,77.70
2018-05-01T08:16:40.763Z,77.00
2018-05-01T08:19:06.645Z,76.30
2018-05-01T08:21:33.299Z,75.90
2018-05-01T08:23:59.922Z,75.80
2018-05-01T08:26:25.957Z,75.70
2018-05-01T08:28:51.969Z,74.90
2018-05-01T08:31:17.850Z,74.30
2018-05-01T08:33:44.508Z,74.90
2018-05-01T08:36:11.116Z,75.40
2018-05-01T08:38:37.052Z,75.40
2018-05-01T08:41:02.920Z,73.80
2018-05-01T08:43:29.575Z,74.50
2018-05-01T08:45:56.195Z,74.70
2018-05-01T08:48:22.076Z,74.70
2018-05-01T08:50:47.967Z,73.70
2018-05-01T08:53:13.888Z,72.40
2018-05-01T08:55:39.792Z,73.10
2018-05-01T08:58:05.663Z,73.90
2018-05-01T09:00:31.616Z,75.10
2018-05-01T09:02:58.977Z,75.20
2018-05-01T09:05:24.881Z,75.20
2018-05-01T09:07:50.762Z,71.10
2018-05-01T09:10:17.407Z,71.10
2018-05-01T09:12:43.304Z,71.10
2018-05-01T09:15:09.202Z,72.20
2018-05-01T09:17:35.172Z,70.90
2018-05-01T09:20:01.751Z,70.30
2018-05-01T09:22:27.736Z,70.30
2018-05-01T09:24:53.707Z,70.30
2018-05-01T09:27:19.632Z,68.50
2018-05-01T09:29:45.511Z,68.70
2018-05-01T09:32:12.160Z,69.10
2018-05-01T09:34:38.809Z,68.70
2018-05-01T09:37:04.676Z,67.70
2018-05-01T09:39:30.544Z,68.90
2018-05-01T09:41:56.495Z,69.80
2018-05-01T09:44:22.416Z,69.50
2018-05-01T09:46:48.311Z,69.00
2018-05-01T09:49:14.211Z,67.40
2018-05-01T09:51:40.112Z,67.10
2018-05-01T09:54:06.089Z,66.20
2018-05-01T09:56:32.080Z,65.00
2018-05-01T09:58:58.130Z,66.60
2018-05-01T10:01:24.182Z,66.40
2018-05-01T10:03:50.157Z,66.10
2018-05-01T10:06:16.888Z,66.60
2018-05-01T10:08:42.935Z,66.60
2018-05-01T10:11:09.691Z,68.30
2018-05-01T10:13:36.415Z,66.00
2018-05-01T10:16:02.421Z,66.00
2018-05-01T10:18:28.440Z,65.00
2018-05-01T10:20:54.448Z,64.30
2018-05-01T10:23:20.413Z,62.70
2018-05-01T10:25:46.412Z,63.50
2018-05-01T10:28:13.135Z,66.20
2018-05-01T10:30:39.138Z,66.20
2018-05-01T10:33:05.127Z,63.60
2018-05-01T10:35:31.113Z,59.70
2018-05-01T10:37:57.952Z,61.90
2018-05-01T10:40:24.705Z,61.30
2018-05-01T10:42:51.467Z,60.00
2018-05-01T10:45:17.488Z,60.00
2018-05-01T10:47:44.229Z,58.40
2018-05-01T10:50:10.208Z,58.40
2018-05-01T10:52:36.220Z,59.40
2018-05-01T10:55:02.986Z,60.20
2018-05-01T10:57:28.969Z,60.20
2018-05-01T10:59:54.997Z,60.40
2018-05-01T11:02:20.968Z,60.20
2018-05-01T11:04:46.971Z,56.60
2018-05-01T11:07:12.929Z,56.50
2018-05-01T11:09:38.887Z,56.10
2018-05-01T11:12:05.611Z,57.00
2018-05-01T11:14:31.627Z,57.00
2018-05-01T11:16:57.988Z,54.10
2018-05-01T11:19:25.579Z,54.80
2018-05-01T11:21:52.365Z,55.50
2018-05-01T11:24:19.095Z,54.10
2018-05-01T11:26:46.574Z,53.60
2018-05-01T11:29:12.543Z,53.60
2018-05-01T11:31:38.557Z,55.10
2018-05-01T11:34:04.540Z,54.90
2018-05-01T11:36:30.525Z,53.80
2018-05-01T11:38:57.224Z,54.40
2018-05-01T11:41:23.240Z,54.40
2018-05-01T11:43:49.210Z,54.20
2018-05-01T11:46:15.378Z,55.10
2018-05-01T11:48:41.352Z,55.00
2018-05-01T11:51:07.410Z,55.10
2018-05-01T11:53:33.422Z,53.80
2018-05-01T11:56:00.124Z,54.60
2018-05-01T11:58:26.159Z,54.50
2018-05-01T12:00:52.136Z,52.90
2018-05-01T12:03:18.871Z,53.00
2018-05-01T12:05:44.929Z,53.00
2018-05-01T12:08:11.684Z,51.00
2018-05-01T12:10:38.581Z,50.80
2018-05-01T12:13:04.631Z,50.70
2018-05-01T12:15:30.587Z,49.80
2018-05-01T12:17:56.667Z,49.90
2018-05-01T12:20:23.641Z,48.70
2018-05-01T12:22:49.597Z,48.00
2018-05-01T12:25:15.587Z,49.40
2018-05-01T12:27:42.361Z,46.40
2018-05-01T12:30:08.325Z,46.20
2018-05-01T12:32:34.322Z,44.60
2018-05-01T12:35:00.291Z,43.00
2018-05-01T12:37:26.300Z,41.30
2018-05-01T12:39:52.306Z,39.20
2018-05-01T12:42:19.080Z,38.90
2018-05-01T12:44:45.052Z,38.80
2018-05-01T12:47:11.028Z,36.20
2018-05-01T12:49:37.135Z,34.40
2018-05-01T12:52:03.115Z,33.30
2018-05-01T13:09:15.760Z,31.80
2018-05-01T13:11:41.760Z,31.70
2018-05-01T13:14:08.469Z,35.60
2018-05-01T13:16:34.468Z,35.60
2018-05-01T13:19:00.504Z,33.10
2018-05-01T13:21:27.223Z,35.40
2018-05-01T13:23:53.212Z,35.40
2018-05-01T13:26:19.195Z,36.50
2018-05-01T13:28:45.185Z,39.20
2018-05-01T13:31:11.182Z,39.50
2018-05-01T13:33:37.175Z,38.90
2018-05-01T13:36:03.153Z,37.80
2018-05-01T13:38:29.140Z,35.50
2018-05-01T13:40:55.201Z,35.50
2018-05-01T13:43:21.192Z,34.30
2018-05-01T13:45:47.197Z,34.10
2018-05-01T13:48:13.204Z,33.00
2018-05-01T13:50:39.268Z,34.10
2018-05-01T13:53:05.207Z,33.70
2018-05-01T13:55:31.172Z,34.70
2018-05-01T13:57:57.196Z,34.00
2018-05-01T14:00:23.221Z,34.10
2018-05-01T14:02:49.947Z,34.10
2018-05-01T14:05:15.941Z,34.10
2018-05-01T14:07:41.924Z,33.50
2018-05-01T14:10:08.736Z,33.00
2018-05-01T14:12:34.699Z,32.80
2018-05-01T14:15:00.659Z,33.40
2018-05-01T14:17:26.825Z,33.50
2018-05-01T14:19:52.866Z,33.70
2018-05-01T14:22:18.930Z,35.00
2018-05-01T14:24:44.911Z,31.80
2018-05-01T14:27:10.909Z,34.50
2018-05-01T14:29:36.864Z,32.60
2018-05-01T14:32:02.839Z,33.50
2018-05-01T14:34:29.584Z,32.50
2018-05-01T14:36:55.608Z,32.50
2018-05-01T14:39:21.581Z,34.30
2018-05-01T14:41:47.564Z,32.50
2018-05-01T14:44:13.583Z,32.80
2018-05-01T14:46:39.607Z,33.30
2018-05-01T14:49:05.600Z,33.10
2018-05-01T14:51:31.589Z,35.50
2018-05-01T14:53:57.572Z,35.60
2018-05-01T14:56:23.596Z,35.20
2018-05-01T14:58:49.578Z,36.80
2018-05-01T15:01:15.573Z,36.50
2018-05-01T15:03:41.536Z,36.80
2018-05-01T15:06:08.272Z,38.50
2018-05-01T15:08:34.248Z,38.50
2018-05-01T15:11:00.244Z,37.90
2018-05-01T15:13:26.247Z,38.20
2018-05-01T15:15:52.201Z,39.20
2018-05-01T15:18:18.263Z,39.00
2018-05-01T15:20:44.250Z,39.60
2018-05-01T15:23:10.216Z,40.00
2018-05-01T15:25:36.245Z,40.20
2018-05-01T15:28:02.253Z,42.00
2018-05-01T15:30:28.231Z,43.40
2018-05-01T15:32:54.259Z,43.20
2018-05-01T15:35:25.403Z,43.50
2018-05-01T15:37:51.368Z,43.60
2018-05-01T15:40:17.790Z,45.10
2018-05-01T15:42:43.768Z,43.40
2018-05-01T15:45:10.501Z,44.30
2018-05-01T15:47:36.510Z,44.30
2018-05-01T15:50:02.496Z,44.20
2018-05-01T15:52:29.218Z,44.80
2018-05-01T15:54:55.264Z,44.80
2018-05-01T15:57:21.225Z,44.10
2018-05-01T15:59:47.942Z,44.50
2018-05-01T16:02:13.945Z,44.50
2018-05-01T16:04:40.806Z,44.90
2018-05-01T16:07:06.756Z,44.30
2018-05-01T16:09:32.764Z,45.50
2018-05-01T16:11:58.732Z,45.40
2018-05-01T16:14:24.896Z,45.30
2018-05-01T16:16:50.743Z,45.30
2018-05-01T16:19:16.744Z,44.80
2018-05-01T16:21:42.775Z,44.70
2018-05-01T16:24:08.787Z,45.00
2018-05-01T16:26:34.792Z,46.50
2018-05-01T16:29:01.508Z,46.50
2018-05-01T16:31:27.503Z,46.50
2018-05-01T16:33:53.558Z,46.60
2018-05-01T16:36:20.848Z,46.20
2018-05-01T16:38:46.847Z,45.10
2018-05-01T16:41:12.808Z,45.80
2018-05-01T16:43:38.832Z,45.90
2018-05-01T16:46:04.835Z,46.80
2018-05-01T16:48:31.528Z,47.30
2018-05-01T16:50:57.540Z,46.70
2018-05-01T16:53:24.244Z,47.10
2018-05-01T16:55:50.232Z,46.40
2018-05-01T16:58:16.217Z,45.80
2018-05-01T17:00:42.236Z,45.90
2018-05-01T17:03:08.203Z,46.30
2018-05-01T17:05:34.195Z,46.50
2018-05-01T17:08:00.179Z,45.90
2018-05-01T17:10:26.148Z,46.30
2018-05-01T17:12:52.277Z,45.20
2018-05-01T17:15:18.208Z,45.50
2018-05-01T17:17:44.164Z,45.80
2018-05-01T17:20:10.216Z,45.50
2018-05-01T17:22:36.215Z,45.60
2018-05-01T17:25:02.915Z,45.80
2018-05-01T17:27:28.899Z,45.80
2018-05-01T17:29:54.876Z,45.30
2018-05-01T17:32:20.851Z,44.90
2018-05-01T17:34:46.835Z,45.40
2018-05-01T17:37:12.840Z,45.60
2018-05-01T17:39:38.787Z,45.80
2018-05-01T17:42:05.529Z,46.30
2018-05-01T17:44:31.572Z,46.30
2018-05-01T17:46:57.567Z,46.50
2018-05-01T17:49:23.631Z,46.00
2018-05-01T17:51:49.721Z,46.40
2018-05-01T17:54:15.719Z,45.80
2018-05-01T17:56:41.781Z,46.50
2018-05-01T17:59:08.483Z,47.60
2018-05-01T18:01:34.505Z,47.60
2018-05-01T18:04:00.497Z,47.80
2018-05-01T18:06:27.230Z,48.30
2018-05-01T18:08:53.293Z,48.30
2018-05-01T18:11:20.016Z,49.10
2018-05-01T18:13:46.046Z,49.10
2018-05-01T18:16:12.114Z,49.40
2018-05-01T18:18:38.864Z,50.00
2018-05-01T18:21:05.590Z,50.30
2018-05-01T18:23:31.536Z,50.30
2018-05-01T18:25:57.548Z,50.20
2018-05-01T18:28:23.562Z,50.30
2018-05-01T18:30:49.556Z,50.80
2018-05-01T18:33:15.549Z,51.00
2018-05-01T18:35:41.554Z,50.60
2018-05-01T18:38:07.605Z,51.00
2018-05-01T18:40:33.666Z,51.20
2018-05-01T18:42:59.678Z,51.10
2018-05-01T18:45:25.757Z,51.20
2018-05-01T18:47:51.793Z,51.30
2018-05-01T18:50:17.825Z,51.40
2018-05-01T18:52:43.828Z,51.60
2018-05-01T18:55:10.561Z,51.90
2018-05-01T18:57:37.379Z,52.10
2018-05-01T19:00:03.340Z,52.00
2018-05-01T19:02:29.327Z,52.50
2018-05-01T19:04:55.355Z,52.40
2018-05-01T19:07:21.408Z,52.50
2018-05-01T19:09:47.412Z,53.30
2018-05-01T19:12:13.424Z,53.30
2018-05-01T19:14:39.455Z,53.70
2018-05-01T19:17:05.416Z,54.40
2018-05-01T19:19:32.182Z,55.00
2018-05-01T19:21:58.141Z,54.90
2018-05-01T19:24:24.135Z,55.60
2018-05-01T19:26:50.860Z,56.20
2018-05-01T19:29:16.928Z,56.10
2018-05-01T19:31:43.671Z,56.10
2018-05-01T19:34:09.644Z,56.00
2018-05-01T19:36:35.696Z,56.20
2018-05-01T19:39:01.649Z,56.10
2018-05-01T19:41:27.653Z,55.70
2018-05-01T19:43:55.122Z,56.80
2018-05-01T19:46:21.172Z,56.80
2018-05-01T19:48:47.175Z,57.10
2018-05-01T19:51:13.876Z,58.60
2018-05-01T19:53:39.924Z,58.60
2018-05-01T19:56:05.883Z,58.40
2018-05-01T19:58:31.868Z,58.60
2018-05-01T20:00:58.805Z,58.80
2018-05-01T20:03:25.012Z,59.30
2018-05-01T20:05:50.974Z,60.00
2018-05-01T20:08:17.703Z,60.00
2018-05-01T20:10:43.741Z,60.00
2018-05-01T20:13:09.712Z,60.50
2018-05-01T20:15:35.716Z,61.70
2018-05-01T20:18:01.715Z,62.20
2018-05-01T20:20:27.735Z,62.80
2018-05-01T20:22:53.708Z,62.40
2018-05-01T20:25:19.676Z,64.50
2018-05-01T20:27:46.415Z,63.70
2018-05-01T20:30:12.470Z,63.70
2018-05-01T20:32:38.384Z,65.50
2018-05-01T20:35:04.353Z,65.20
2018-05-01T20:37:31.093Z,66.00
2018-05-01T20:39:57.117Z,66.00
2018-05-01T20:42:23.732Z,67.40
2018-05-01T20:44:49.723Z,65.50
2018-05-01T20:47:16.493Z,68.50
2018-05-01T20:49:42.504Z,68.50
2018-05-01T20:52:08.504Z,67.40
2018-05-01T20:54:34.472Z,67.60
2018-05-01T20:57:00.476Z,69.40
2018-05-01T20:59:26.476Z,70.20
2018-05-01T21:01:52.584Z,70.00
2018-05-01T21:04:18.525Z,70.10
2018-05-01T21:06:45.258Z,71.60
2018-05-01T21:09:11.228Z,71.50
2018-05-01T21:11:37.231Z,70.80
2018-05-01T21:14:03.221Z,71.10
2018-05-01T21:16:29.205Z,70.40
2018-05-01T21:18:55.259Z,70.30
2018-05-01T21:21:21.216Z,69.70
2018-05-01T21:23:47.220Z,70.60
2018-05-01T21:26:20.301Z,70.30
2018-05-01T21:28:46.343Z,70.00
2018-05-01T21:31:12.267Z,71.90
2018-05-01T21:33:38.292Z,72.80
2018-05-01T21:36:04.252Z,73.40
2018-05-01T21:38:30.239Z,74.60
2018-05-01T21:40:56.241Z,74.90
2018-05-01T21:43:22.208Z,74.70
2018-05-01T21:45:48.209Z,73.40
2018-05-01T21:48:14.180Z,72.60
2018-05-01T21:50:40.908Z,73.90
2018-05-01T21:53:06.962Z,73.80
2018-05-01T21:55:33.713Z,76.30
2018-05-01T21:58:00.424Z,78.50
2018-05-01T22:00:26.413Z,78.40
2018-05-01T22:02:52.373Z,77.70
2018-05-01T22:05:18.372Z,77.40
2018-05-01T22:07:44.349Z,76.90
2018-05-01T22:10:10.311Z,76.70
2018-05-01T22:12:36.299Z,77.70
2018-05-01T22:15:02.265Z,79.70
2018-05-01T22:17:28.296Z,81.30
2018-05-01T22:19:54.264Z,81.90
2018-05-01T22:22:20.266Z,77.70
2018-05-01T22:24:46.225Z,77.40
2018-05-01T22:27:12.205Z,80.10
2018-05-01T22:29:38.939Z,81.00
2018-05-01T22:32:04.904Z,81.00
2018-05-01T22:34:31.637Z,82.30
2018-05-01T22:36:57.603Z,82.20
2018-05-01T22:39:23.608Z,82.20
2018-05-01T22:41:50.360Z,83.70
2018-05-01T22:44:16.336Z,84.50
2018-05-01T22:46:42.346Z,84.60
2018-05-01T22:49:09.044Z,85.40
2018-05-01T22:51:35.045Z,85.30
2018-05-01T22:54:01.780Z,87.80
2018-05-01T22:56:27.772Z,87.80
2018-05-01T22:58:53.738Z,87.80
2018-05-01T23:01:19.727Z,87.30
2018-05-01T23:03:45.669Z,86.80
2018-05-01T23:06:11.664Z,89.10
2018-05-01T23:08:38.406Z,85.90
2018-05-01T23:11:04.360Z,85.90
2018-05-01T23:13:31.081Z,86.30
2018-05-01T23:15:57.051Z,86.30
2018-05-01T23:18:23.091Z,87.10
2018-05-01T23:20:49.084Z,87.50
2018-05-01T23:23:15.060Z,88.20
2018-05-01T23:25:41.801Z,90.00
2018-05-01T23:28:07.743Z,90.00
2018-05-01T23:30:34.463Z,91.50
2018-05-01T23:33:00.412Z,91.50
2018-05-01T23:35:26.425Z,91.30
2018-05-01T23:37:52.393Z,90.20
2018-05-01T23:40:19.140Z,90.00
2018-05-01T23:42:45.097Z,90.00
2018-05-01T23:45:11.835Z,90.80
2018-05-01T23:47:37.789Z,90.80
2018-05-01T23:50:04.532Z,91.50
2018-05-01T23:52:31.233Z,92.30
2018-05-01T23:54:57.203Z,92.20
2018-05-01T23:57:23.196Z,93.00
2018-05-01T23:59:49.169Z,93.20
